createdAt,value
2024-04-24T00:01:20.770Z,98180.94
2024-04-24T00:03:47.480Z,98187.09
2024-04-24T00:06:14.181Z,98176.56
2024-04-24T00:08:40.831Z,98183.56
2024-04-24T00:11:07.477Z,98174.81
2024-04-24T00:13:34.146Z,98164.31
2024-04-24T00:16:00.799Z,98167.75
2024-04-24T00:18:27.562Z,98153.75
2024-04-24T00:20:57.281Z,98158.13
2024-04-24T00:23:23.964Z,98166.00
2024-04-24T00:25:50.798Z,98165.94
2024-04-24T00:28:17.497Z,98157.19
2024-04-24T00:30:44.208Z,98154.56
2024-04-24T00:33:11.364Z,98151.88
2024-04-24T00:35:38.228Z,98146.63
2024-04-24T00:38:05.155Z,98136.94
2024-04-24T00:40:37.759Z,98137.78
2024-04-24T00:43:04.622Z,98136.84
2024-04-24T00:45:31.266Z,98126.34
2024-04-24T00:47:58.607Z,98125.44
2024-04-24T00:50:26.773Z,98122.75
2024-04-24T00:52:53.631Z,98117.50
2024-04-24T00:55:20.661Z,98116.63
2024-04-24T00:57:47.443Z,98113.13
2024-04-24T01:00:14.261Z,98109.59
2024-04-24T01:02:41.980Z,98111.28
2024-04-24T01:05:08.863Z,98103.41
2024-04-24T01:07:38.964Z,98105.97
2024-04-24T01:10:16.610Z,98095.47
2024-04-24T01:12:43.637Z,98091.91
2024-04-24T01:15:10.720Z,98089.25
2024-04-24T01:17:42.093Z,98086.66
2024-04-24T01:20:15.507Z,98084.00
2024-04-24T01:23:10.180Z,98079.63
2024-04-24T01:25:42.915Z,98063.91
2024-04-24T01:28:09.668Z,98053.41
2024-04-24T01:30:36.281Z,98059.56
2024-04-24T01:33:03.221Z,98057.81
2024-04-24T01:35:30.236Z,98047.31
2024-04-24T01:37:56.883Z,98050.81
2024-04-24T01:40:23.817Z,98039.44
2024-04-24T01:42:50.428Z,98038.63
2024-04-24T01:45:17.169Z,98041.22
2024-04-24T01:47:44.025Z,98035.94
2024-04-24T01:50:10.721Z,98029.84
2024-04-24T01:52:37.405Z,98028.06
2024-04-24T01:55:04.116Z,98028.94
2024-04-24T01:57:30.779Z,98030.72
2024-04-24T01:59:57.380Z,98030.72
2024-04-24T02:02:24.048Z,98034.19
2024-04-24T02:04:50.734Z,98028.94
2024-04-24T02:07:17.371Z,98033.22
2024-04-24T02:09:44.002Z,98032.34
2024-04-24T02:12:16.165Z,98027.09
2024-04-24T02:14:43.878Z,98022.75
2024-04-24T02:17:10.608Z,98030.53
2024-04-24T02:19:37.374Z,98016.44
2024-04-24T02:22:04.222Z,98017.31
2024-04-24T02:24:49.585Z,98020.75
2024-04-24T02:27:16.292Z,98012.03
2024-04-24T02:29:51.395Z,98009.44
2024-04-24T02:32:22.991Z,97998.91
2024-04-24T02:34:49.790Z,97994.59
2024-04-24T02:37:16.429Z,98003.34
2024-04-24T02:39:43.076Z,98000.72
2024-04-24T02:42:09.721Z,98002.47
2024-04-24T02:44:37.627Z,97993.72
2024-04-24T02:47:04.342Z,97993.72
2024-04-24T02:49:31.114Z,97979.69
2024-04-24T02:51:57.709Z,97997.16
2024-04-24T02:54:24.382Z,97990.16
2024-04-24T02:56:53.191Z,97984.94
2024-04-24T02:59:21.198Z,97981.44
2024-04-24T03:01:48.042Z,97979.75
2024-04-24T03:04:14.896Z,97990.22
2024-04-24T03:06:43.184Z,97995.44
2024-04-24T03:09:10.693Z,97983.16
2024-04-24T03:11:39.536Z,97975.22
2024-04-24T03:14:06.266Z,97974.41
2024-04-24T03:16:34.133Z,97983.16
2024-04-24T03:19:00.779Z,97978.69
2024-04-24T03:21:27.411Z,97976.97
2024-04-24T03:23:54.024Z,97984.72
2024-04-24T03:26:20.727Z,97967.19
2024-04-24T03:28:47.547Z,97965.50
2024-04-24T03:31:14.263Z,97958.59
2024-04-24T03:33:40.961Z,97958.63
2024-04-24T03:36:07.723Z,97949.88
2024-04-24T03:38:34.321Z,97943.78
2024-04-24T03:41:01.060Z,97943.78
2024-04-24T03:43:27.701Z,97941.16
2024-04-24T03:45:54.341Z,97939.41
2024-04-24T03:48:21.028Z,97937.66
2024-04-24T03:50:47.679Z,97935.88
2024-04-24T03:53:14.321Z,97934.09
2024-04-24T03:55:41.896Z,97936.75
2024-04-24T03:58:08.620Z,97931.47
2024-04-24T04:00:35.249Z,97935.75
2024-04-24T04:03:01.939Z,97927.88
2024-04-24T04:05:28.759Z,97928.63
2024-04-24T04:08:01.553Z,97928.56
2024-04-24T04:10:28.431Z,97932.06
2024-04-24T04:12:55.109Z,97924.19
2024-04-24T04:15:21.799Z,97914.66
2024-04-24T04:17:49.224Z,97906.81
2024-04-24T04:20:16.063Z,97903.31
2024-04-24T04:22:43.354Z,97897.22
2024-04-24T04:25:10.594Z,97897.22
2024-04-24T04:27:37.380Z,97893.75
2024-04-24T04:30:04.502Z,97890.22
2024-04-24T04:32:31.278Z,97909.34
2024-04-24T04:34:58.016Z,97906.69
2024-04-24T04:37:24.739Z,97907.50
2024-04-24T04:39:51.575Z,97909.28
2024-04-24T04:42:18.231Z,97906.69
2024-04-24T04:44:44.836Z,97907.50
2024-04-24T04:47:11.727Z,97910.09
2024-04-24T04:49:38.465Z,97917.09
2024-04-24T04:52:05.338Z,97900.53
2024-04-24T04:54:31.984Z,97906.72
2024-04-24T04:56:59.394Z,97904.22
2024-04-24T04:59:26.093Z,97899.94
2024-04-24T05:01:53.495Z,97906.13
2024-04-24T05:04:20.926Z,97900.06
2024-04-24T05:06:47.561Z,97897.50
2024-04-24T05:09:14.141Z,97904.56
2024-04-24T05:11:42.183Z,97897.66
2024-04-24T05:14:08.966Z,97895.97
2024-04-24T05:16:35.598Z,97900.38
2024-04-24T05:19:02.347Z,97895.19
2024-04-24T05:21:28.973Z,97892.56
2024-04-24T05:23:55.740Z,97890.78
2024-04-24T05:26:40.957Z,97894.28
2024-04-24T05:29:08.904Z,97893.34
2024-04-24T05:31:38.132Z,97887.28
2024-04-24T05:34:05.495Z,97890.72
2024-04-24T05:36:32.165Z,97885.47
2024-04-24T05:38:58.948Z,97884.66
2024-04-24T05:41:25.616Z,97884.66
2024-04-24T05:43:52.514Z,97880.28
2024-04-24T05:46:19.611Z,97881.16
2024-04-24T05:48:46.391Z,97886.44
2024-04-24T05:51:13.082Z,97876.84
2024-04-24T05:53:39.678Z,97883.00
2024-04-24T05:56:06.929Z,97883.84
2024-04-24T05:58:33.554Z,97875.97
2024-04-24T06:01:00.206Z,97883.84
2024-04-24T06:03:26.860Z,97878.63
2024-04-24T06:05:53.506Z,97881.22
2024-04-24T06:08:20.407Z,97870.72
2024-04-24T06:10:47.029Z,97880.38
2024-04-24T06:13:13.775Z,97874.31
2024-04-24T06:15:40.522Z,97873.44
2024-04-24T06:18:07.285Z,97863.81
2024-04-24T06:20:33.994Z,97862.06
2024-04-24T06:23:00.682Z,97875.19
2024-04-24T06:25:27.332Z,97880.44
2024-04-24T06:27:53.994Z,97869.97
2024-04-24T06:30:20.627Z,97871.72
2024-04-24T06:32:49.771Z,97864.72
2024-04-24T06:35:23.995Z,97869.09
2024-04-24T06:37:54.752Z,97862.13
2024-04-24T06:40:21.542Z,97864.78
2024-04-24T06:42:50.222Z,97869.22
2024-04-24T06:45:16.846Z,97857.81
2024-04-24T06:47:43.578Z,97858.69
2024-04-24T06:50:10.321Z,97856.06
2024-04-24T06:52:37.016Z,97860.44
2024-04-24T06:55:03.854Z,97857.84
2024-04-24T06:57:30.499Z,97865.72
2024-04-24T06:59:58.117Z,97884.00
2024-04-24T07:02:24.822Z,97883.84
2024-04-24T07:04:51.502Z,97880.25
2024-04-24T07:07:23.133Z,97894.06
2024-04-24T07:09:50.189Z,97886.75
2024-04-24T07:12:16.870Z,97886.56
2024-04-24T07:14:43.505Z,97876.09
2024-04-24T07:17:10.130Z,97870.09
2024-04-24T07:19:36.876Z,97867.56
2024-04-24T07:22:03.529Z,97863.28
2024-04-24T07:24:30.157Z,97858.94
2024-04-24T07:26:56.791Z,97854.66
2024-04-24T07:29:23.533Z,97859.13
2024-04-24T07:31:50.382Z,97857.41
2024-04-24T07:34:17.421Z,97852.25
2024-04-24T07:36:44.114Z,97848.81
2024-04-24T07:39:10.779Z,97841.03
2024-04-24T07:41:39.852Z,97838.47
2024-04-24T07:44:08.462Z,97837.59
2024-04-24T07:46:35.164Z,97831.56
2024-04-24T07:49:01.880Z,97838.59
2024-04-24T07:51:28.540Z,97835.06
2024-04-24T07:53:55.225Z,97829.81
2024-04-24T07:56:21.915Z,97821.88
2024-04-24T07:58:48.547Z,97819.16
2024-04-24T08:01:16.782Z,97813.81
2024-04-24T08:03:43.443Z,97807.59
2024-04-24T08:06:10.253Z,97808.47
2024-04-24T08:08:40.527Z,97813.81
2024-04-24T08:11:07.229Z,97810.44
2024-04-24T08:13:33.853Z,97820.13
2024-04-24T08:16:00.656Z,97821.03
2024-04-24T08:18:27.497Z,97811.31
2024-04-24T08:20:55.508Z,97820.88
2024-04-24T08:23:26.468Z,97806.03
2024-04-24T08:25:54.222Z,97813.00
2024-04-24T08:28:30.149Z,97807.75
2024-04-24T08:31:05.610Z,97802.53
2024-04-24T08:33:36.569Z,97801.63
2024-04-24T08:36:11.178Z,97808.69
2024-04-24T08:38:38.932Z,97801.59
2024-04-24T08:41:10.407Z,97805.09
2024-04-24T08:43:40.050Z,97798.94
2024-04-24T08:46:08.315Z,97798.84
2024-04-24T08:48:43.787Z,97795.22
2024-04-24T08:51:11.994Z,97795.00
2024-04-24T08:53:50.071Z,97790.47
2024-04-24T08:56:19.909Z,97792.16
2024-04-24T08:58:51.061Z,97787.81
2024-04-24T09:01:22.553Z,97783.50
2024-04-24T09:03:58.507Z,97777.22
2024-04-24T09:06:25.821Z,97792.25
2024-04-24T09:08:55.294Z,97779.91
2024-04-24T09:11:22.246Z,97779.03
2024-04-24T09:13:49.170Z,97772.59
2024-04-24T09:16:20.026Z,97776.50
2024-04-24T09:19:05.845Z,97780.09
2024-04-24T09:21:33.180Z,97779.69
2024-04-24T09:23:59.867Z,97777.38
2024-04-24T09:26:27.734Z,97778.34
2024-04-24T09:28:54.646Z,97779.25
2024-04-24T09:31:23.316Z,97781.69
2024-04-24T09:33:51.202Z,97774.44
2024-04-24T09:36:18.090Z,97769.19
2024-04-24T09:38:46.286Z,97780.56
2024-04-24T09:41:13.205Z,97763.13
2024-04-24T09:43:40.003Z,97764.91
2024-04-24T09:46:06.709Z,97772.09
2024-04-24T09:48:33.509Z,97772.22
2024-04-24T09:51:00.433Z,97776.75
2024-04-24T09:53:27.186Z,97782.16
2024-04-24T09:56:12.491Z,97785.78
2024-04-24T09:58:43.884Z,97799.94
2024-04-24T10:01:13.745Z,97794.72
2024-04-24T10:03:42.118Z,97796.47
2024-04-24T10:06:13.050Z,97789.41
2024-04-24T10:08:42.334Z,97779.66
2024-04-24T10:11:13.779Z,97782.25
2024-04-24T10:13:42.757Z,97774.28
2024-04-24T10:16:09.452Z,97785.63
2024-04-24T10:18:36.887Z,97760.88
2024-04-24T10:21:05.511Z,97768.59
2024-04-24T10:23:33.059Z,97769.09
2024-04-24T10:26:00.976Z,97773.31
2024-04-24T10:28:29.011Z,97764.50
2024-04-24T10:30:58.158Z,97763.59
2024-04-24T10:33:26.785Z,97758.41
2024-04-24T10:35:53.932Z,97764.66
2024-04-24T10:38:20.658Z,97761.28
2024-04-24T10:40:49.640Z,97756.13
2024-04-24T10:43:17.254Z,97760.38
2024-04-24T10:45:53.930Z,97755.03
2024-04-24T10:48:20.880Z,97756.84
2024-04-24T10:50:57.402Z,97754.22
2024-04-24T10:53:24.978Z,97748.94
2024-04-24T10:56:00.378Z,97751.66
2024-04-24T10:58:27.532Z,97758.75
2024-04-24T11:00:54.320Z,97766.88
2024-04-24T11:03:25.764Z,97764.34
2024-04-24T11:05:52.790Z,97760.03
2024-04-24T11:08:21.012Z,97765.34
2024-04-24T11:10:51.913Z,97761.03
2024-04-24T11:13:18.688Z,97766.22
2024-04-24T11:15:54.428Z,97755.78
2024-04-24T11:18:25.669Z,97766.38
2024-04-24T11:20:52.364Z,97760.28
2024-04-24T11:23:19.057Z,97756.63
2024-04-24T11:25:58.575Z,97752.16
2024-04-24T11:28:27.734Z,97755.69
2024-04-24T11:30:54.757Z,97745.09
2024-04-24T11:33:22.611Z,97751.38
2024-04-24T11:35:52.223Z,97753.28
2024-04-24T11:38:19.027Z,97742.75
2024-04-24T11:40:45.972Z,97746.25
2024-04-24T11:43:20.007Z,97743.38
2024-04-24T11:46:17.320Z,97726.94
2024-04-24T11:49:54.937Z,97701.22
2024-04-24T11:52:22.309Z,97717.91
2024-04-24T11:54:53.816Z,97730.38
2024-04-24T11:57:21.733Z,97723.66
2024-04-24T11:59:48.910Z,97722.69
2024-04-24T12:02:19.189Z,97715.63
2024-04-24T12:04:47.465Z,97711.41
2024-04-24T12:07:15.132Z,97714.94
2024-04-24T12:09:41.867Z,97706.53
2024-04-24T12:12:08.822Z,97710.88
2024-04-24T12:14:37.022Z,97703.13
2024-04-24T12:17:04.618Z,97689.38
2024-04-24T12:19:31.520Z,97703.88
2024-04-24T12:21:58.518Z,97690.22
2024-04-24T12:24:26.440Z,97691.03
2024-04-24T12:26:55.946Z,97684.94
2024-04-24T12:29:22.689Z,97683.59
2024-04-24T12:31:49.493Z,97678.66
2024-04-24T12:34:18.616Z,97674.66
2024-04-24T12:36:45.384Z,97679.59
2024-04-24T12:39:12.341Z,97671.78
2024-04-24T12:41:39.016Z,97674.72
2024-04-24T12:44:06.830Z,97670.69
2024-04-24T12:46:33.821Z,97668.97
2024-04-24T12:49:03.462Z,97667.25
2024-04-24T12:51:32.139Z,97674.47
2024-04-24T12:53:59.379Z,97664.91
2024-04-24T12:56:26.071Z,97673.44
2024-04-24T12:58:52.777Z,97666.44
2024-04-24T13:01:25.849Z,97683.44
2024-04-24T13:03:52.669Z,97689.97
2024-04-24T13:06:24.101Z,97684.75
2024-04-24T13:08:51.093Z,97679.13
2024-04-24T13:11:17.896Z,97681.47
2024-04-24T13:13:44.547Z,97680.69
2024-04-24T13:16:11.596Z,97688.75
2024-04-24T13:18:38.565Z,97677.34
2024-04-24T13:21:05.616Z,97676.38
2024-04-24T13:23:32.304Z,97669.56
2024-04-24T13:25:58.975Z,97672.50
2024-04-24T13:28:25.829Z,97672.78
2024-04-24T13:30:52.520Z,97672.88
2024-04-24T13:33:19.560Z,97669.41
2024-04-24T13:35:48.714Z,97660.09
2024-04-24T13:38:16.756Z,97640.06
2024-04-24T13:40:43.389Z,97641.47
2024-04-24T13:43:10.095Z,97628.19
2024-04-24T13:48:04.694Z,97631.78
2024-04-24T13:50:31.738Z,97627.38
2024-04-24T13:52:58.563Z,97627.16
2024-04-24T13:55:25.234Z,97619.09
2024-04-24T13:57:51.888Z,97623.31
2024-04-24T14:00:18.744Z,97615.47
2024-04-24T14:02:45.751Z,97603.44
2024-04-24T14:05:12.603Z,97605.88
2024-04-24T14:07:39.354Z,97611.28
2024-04-24T14:10:07.189Z,97615.88
2024-04-24T14:12:33.922Z,97609.22
2024-04-24T14:15:00.619Z,97618.03
2024-04-24T14:17:27.886Z,97603.72
2024-04-24T14:19:56.033Z,97604.13
2024-04-24T14:22:23.115Z,97593.94
2024-04-24T14:24:51.424Z,97591.44
2024-04-24T14:27:18.137Z,97601.69
2024-04-24T14:29:44.939Z,97606.06
2024-04-24T14:32:11.843Z,97598.78
2024-04-24T14:34:38.681Z,97601.59
2024-04-24T14:37:06.085Z,97605.56
2024-04-24T14:39:32.929Z,97614.59
2024-04-24T14:42:01.596Z,97618.41
2024-04-24T14:44:29.070Z,97638.28
2024-04-24T14:46:55.809Z,97631.78
2024-04-24T14:49:22.611Z,97641.94
2024-04-24T14:51:49.310Z,97640.34
2024-04-24T14:54:16.028Z,97644.00
2024-04-24T14:56:44.374Z,97629.16
2024-04-24T14:59:11.122Z,97622.94
2024-04-24T15:01:37.971Z,97612.31
2024-04-24T15:04:05.581Z,97611.38
2024-04-24T15:06:34.859Z,97606.06
2024-04-24T15:09:01.541Z,97614.75
2024-04-24T15:11:28.450Z,97609.31
2024-04-24T15:13:55.343Z,97597.72
2024-04-24T15:16:21.970Z,97601.09
2024-04-24T15:18:49.142Z,97603.69
2024-04-24T15:21:15.874Z,97601.06
2024-04-24T15:23:46.272Z,97606.44
2024-04-24T15:26:14.743Z,97608.38
2024-04-24T15:28:41.401Z,97596.19
2024-04-24T15:31:08.748Z,97589.22
2024-04-24T15:33:35.648Z,97590.84
2024-04-24T15:36:02.440Z,97580.09
2024-04-24T15:38:29.167Z,97574.72
2024-04-24T15:40:56.041Z,97572.84
2024-04-24T15:43:22.631Z,97569.31
2024-04-24T15:45:50.004Z,97568.47
2024-04-24T15:48:16.977Z,97564.09
2024-04-24T15:50:43.728Z,97558.00
2024-04-24T15:53:10.432Z,97568.66
2024-04-24T15:55:37.126Z,97566.06
2024-04-24T15:58:03.917Z,97567.88
2024-04-24T16:00:30.558Z,97560.84
2024-04-24T16:02:57.402Z,97546.03
2024-04-24T16:05:24.187Z,97552.19
2024-04-24T16:07:50.941Z,97544.25
2024-04-24T16:10:17.754Z,97547.72
2024-04-24T16:12:44.538Z,97542.38
2024-04-24T16:15:11.176Z,97537.09
2024-04-24T16:17:37.990Z,97535.28
2024-04-24T16:20:05.466Z,97531.78
2024-04-24T16:22:32.098Z,97534.38
2024-04-24T16:24:58.775Z,97535.31
2024-04-24T16:27:25.929Z,97538.88
2024-04-24T16:29:52.602Z,97534.53
2024-04-24T16:32:19.483Z,97540.69
2024-04-24T16:34:46.306Z,97540.72
2024-04-24T16:37:13.433Z,97552.09
2024-04-24T16:39:41.750Z,97555.66
2024-04-24T16:42:08.684Z,97558.44
2024-04-24T16:44:35.297Z,97556.78
2024-04-24T16:47:02.104Z,97555.06
2024-04-24T16:49:33.345Z,97563.91
2024-04-24T16:52:01.448Z,97556.91
2024-04-24T16:54:28.089Z,97558.66
2024-04-24T16:56:54.717Z,97567.44
2024-04-24T16:59:21.369Z,97565.72
2024-04-24T17:01:48.053Z,97571.91
2024-04-24T17:04:14.755Z,97567.53
2024-04-24T17:06:41.503Z,97566.66
2024-04-24T17:09:08.229Z,97569.34
2024-04-24T17:11:35.981Z,97575.47
2024-04-24T17:14:03.572Z,97565.06
2024-04-24T17:16:30.369Z,97570.25
2024-04-24T17:18:59.220Z,97564.97
2024-04-24T17:21:26.155Z,97570.25
2024-04-24T17:23:53.588Z,97566.72
2024-04-24T17:26:29.676Z,97575.59
2024-04-24T17:29:01.965Z,97566.81
2024-04-24T17:31:28.794Z,97569.44
2024-04-24T17:33:55.491Z,97565.03
2024-04-24T17:36:22.560Z,97574.72
2024-04-24T17:38:49.244Z,97574.72
2024-04-24T17:41:15.920Z,97568.56
2024-04-24T17:43:42.546Z,97571.22
2024-04-24T17:46:09.476Z,97573.84
2024-04-24T17:48:36.469Z,97576.50
2024-04-24T17:51:05.020Z,97584.34
2024-04-24T17:53:31.810Z,97584.38
2024-04-24T17:55:58.550Z,97582.59
2024-04-24T17:58:26.995Z,97572.09
2024-04-24T18:00:54.773Z,97563.31
2024-04-24T18:03:22.159Z,97572.09
2024-04-24T18:05:49.691Z,97558.13
2024-04-24T18:08:19.268Z,97561.63
2024-04-24T18:10:46.251Z,97566.91
2024-04-24T18:13:13.133Z,97571.31
2024-04-24T18:15:40.608Z,97574.84
2024-04-24T18:18:07.385Z,97577.50
2024-04-24T18:20:34.301Z,97578.41
2024-04-24T18:23:01.133Z,97574.88
2024-04-24T18:25:29.357Z,97574.91
2024-04-24T18:27:56.114Z,97567.91
2024-04-24T18:30:22.882Z,97572.25
2024-04-24T18:32:49.778Z,97574.84
2024-04-24T18:35:17.642Z,97576.69
2024-04-24T18:37:44.575Z,97576.66
2024-04-24T18:40:11.814Z,97582.81
2024-04-24T18:42:38.607Z,97576.69
2024-04-24T18:45:05.536Z,97576.72
2024-04-24T18:47:34.943Z,97575.84
2024-04-24T18:50:01.740Z,97584.63
2024-04-24T18:52:28.436Z,97584.63
2024-04-24T18:54:55.044Z,97585.50
2024-04-24T18:57:21.687Z,97596.03
2024-04-24T18:59:48.336Z,97592.53
2024-04-24T19:02:14.980Z,97598.66
2024-04-24T19:04:41.605Z,97597.81
2024-04-24T19:07:08.383Z,97597.81
2024-04-24T19:09:35.988Z,97604.84
2024-04-24T19:12:04.536Z,97600.50
2024-04-24T19:14:31.348Z,97602.22
2024-04-24T19:17:00.108Z,97599.63
2024-04-24T19:19:29.766Z,97604.03
2024-04-24T19:21:56.425Z,97598.78
2024-04-24T19:24:24.174Z,97602.28
2024-04-24T19:26:50.820Z,97604.91
2024-04-24T19:29:17.457Z,97603.19
2024-04-24T19:31:44.229Z,97611.03
2024-04-24T19:34:10.863Z,97610.19
2024-04-24T19:36:37.522Z,97602.31
2024-04-24T19:39:04.336Z,97605.81
2024-04-24T19:41:31.084Z,97598.78
2024-04-24T19:43:57.758Z,97596.16
2024-04-24T19:46:24.808Z,97591.81
2024-04-24T19:48:54.599Z,97593.56
2024-04-24T19:51:21.245Z,97598.81
2024-04-24T19:53:47.868Z,97598.81
2024-04-24T19:56:14.630Z,97599.69
2024-04-24T19:58:41.642Z,97590.06
2024-04-24T20:01:09.986Z,97590.91
2024-04-24T20:03:40.288Z,97593.56
2024-04-24T20:06:07.810Z,97589.19
2024-04-24T20:08:35.924Z,97593.59
2024-04-24T20:11:06.698Z,97598.81
2024-04-24T20:13:36.605Z,97597.97
2024-04-24T20:16:07.703Z,97594.47
2024-04-24T20:18:37.369Z,97601.44
2024-04-24T20:21:05.475Z,97595.34
2024-04-24T20:23:32.508Z,97590.06
2024-04-24T20:25:59.164Z,97594.44
2024-04-24T20:28:25.804Z,97593.56
2024-04-24T20:30:52.409Z,97605.84
2024-04-24T20:33:19.271Z,97602.31
2024-04-24T20:35:46.174Z,97600.56
2024-04-24T20:38:13.434Z,97609.31
2024-04-24T20:40:40.075Z,97606.72
2024-04-24T20:43:06.728Z,97597.97
2024-04-24T20:45:33.323Z,97610.19
2024-04-24T20:48:01.358Z,97601.47
2024-04-24T20:50:28.242Z,97608.47
2024-04-24T20:52:55.016Z,97607.56
2024-04-24T20:55:21.727Z,97603.19
2024-04-24T20:57:48.357Z,97604.06
2024-04-24T21:00:15.489Z,97604.06
2024-04-24T21:02:42.214Z,97612.81
2024-04-24T21:05:08.959Z,97608.44
2024-04-24T21:07:36.035Z,97611.06
2024-04-24T21:10:02.685Z,97605.84
2024-04-24T21:12:29.385Z,97611.97
2024-04-24T21:14:55.997Z,97606.72
2024-04-24T21:17:22.736Z,97604.94
2024-04-24T21:19:49.562Z,97604.06
2024-04-24T21:22:17.018Z,97596.22
2024-04-24T21:24:43.699Z,97602.34
2024-04-24T21:27:12.864Z,97597.09
2024-04-24T21:29:41.233Z,97595.34
2024-04-24T21:32:07.951Z,97600.59
2024-04-24T21:34:34.991Z,97599.72
2024-04-24T21:37:01.609Z,97590.09
2024-04-24T21:39:28.334Z,97597.09
2024-04-24T21:41:57.319Z,97594.47
2024-04-24T21:44:24.254Z,97594.47
2024-04-24T21:46:50.882Z,97596.22
2024-04-24T21:49:17.596Z,97597.09
2024-04-24T21:51:44.226Z,97592.69
2024-04-24T21:54:10.936Z,97592.72
2024-04-24T21:56:37.790Z,97588.34
2024-04-24T21:59:04.590Z,97584.84
2024-04-24T22:01:31.236Z,97582.22
2024-04-24T22:04:01.569Z,97588.31
2024-04-24T22:06:29.458Z,97588.34
2024-04-24T22:08:56.103Z,97579.59
2024-04-24T22:11:22.819Z,97584.84
2024-04-24T22:13:49.527Z,97584.84
2024-04-24T22:16:16.715Z,97580.50
2024-04-24T22:18:44.158Z,97579.63
2024-04-24T22:21:11.793Z,97578.75
2024-04-24T22:23:38.582Z,97577.00
2024-04-24T22:26:05.395Z,97575.28
2024-04-24T22:28:32.038Z,97577.91
2024-04-24T22:30:58.673Z,97582.28
2024-04-24T22:33:26.036Z,97570.91
2024-04-24T22:35:52.754Z,97578.78
2024-04-24T22:38:19.359Z,97574.41
2024-04-24T22:40:46.032Z,97576.16
2024-04-24T22:43:12.742Z,97580.50
2024-04-24T22:45:39.661Z,97570.03
2024-04-24T22:48:06.670Z,97578.78
2024-04-24T22:50:33.940Z,97583.16
2024-04-24T22:53:00.597Z,97588.41
2024-04-24T22:55:27.258Z,97591.91
2024-04-24T22:57:53.833Z,97591.88
2024-04-24T23:00:20.568Z,97595.38
2024-04-24T23:02:47.281Z,97598.88
2024-04-24T23:05:14.074Z,97598.00
2024-04-24T23:07:40.712Z,97595.38
2024-04-24T23:10:07.521Z,97591.03
2024-04-24T23:12:34.172Z,97586.66
2024-04-24T23:15:00.810Z,97587.53
2024-04-24T23:17:27.510Z,97593.66
2024-04-24T23:19:54.179Z,97585.75
2024-04-24T23:22:20.820Z,97585.78
2024-04-24T23:24:47.454Z,97589.28
2024-04-24T23:27:14.131Z,97583.16
2024-04-24T23:29:43.089Z,97582.28
2024-04-24T23:32:09.787Z,97586.66
2024-04-24T23:34:36.433Z,97584.03
2024-04-24T23:37:03.124Z,97582.31
2024-04-24T23:39:29.731Z,97579.66
2024-04-24T23:41:56.366Z,97575.28
2024-04-24T23:44:23.042Z,97578.78
2024-04-24T23:46:50.016Z,97582.28
2024-04-24T23:49:16.749Z,97573.53
2024-04-24T23:51:43.364Z,97574.41
2024-04-24T23:54:10.066Z,97578.78
2024-04-24T23:56:38.511Z,97567.44
2024-04-24T23:59:05.377Z,97570.03
